YXMA weather

Maclean Hospital Helipad
Maclean, New South Wales, Australia

Public forecast

Using degrees Celsius for public forecast. Weather courtesy of forecast.io.

METAR (pilot weather report)

Closest report is Grafton Airport, 20.4 nm (37.8 km) SSW. Retrieved 2019/02/19 14:00 UTC (29 minutes ago):

YGFN 191400Z AUTO 12005KT 9999 // SCT125 23/21 Q1008

TAF (pilot weather forecast)

Closest forecast is Gold Coast Airport, 79.0 nm (146.4 km) NNE. Retrieved 2019/02/19 12:30 UTC (2 hours ago):

TAF YBCG 191113Z 1912/2012 35006KT 9999 SCT020 FM191500 21005KT 9999 SCT020 FM192200 16012KT 9999 FEW025 BKN035 FM200100 12014KT 9999 FEW030 FM200900 15012KT 9999 SCT020